Time;durP1;ratioP1;P1;durP2;ratioP2;P2;SDS_P1;SDS_P2;PMS_P1;PMS_P2;Temp;Humidity;BMP_temperature;BMP_pressure;BME280_temperature;BME280_humidity;BME280_pressure;Samples;Min_cycle;Max_cycle;Signal;HPM_P1;HPM_P2
2023/10/04 00:00:20;;;;;;;8.17;2.00;;;14.20;99.90;;;;;;7285098;19;20639;-89
2023/10/04 00:02:49;;;;;;;15.63;2.43;;;14.20;99.90;;;;;;7284013;19;20187;-89
2023/10/04 00:05:16;;;;;;;15.27;2.40;;;14.20;99.90;;;;;;7283018;19;21500;-89
2023/10/04 00:07:49;;;;;;;18.97;2.20;;;14.20;99.90;;;;;;7284129;19;20604;-89
2023/10/04 00:10:18;;;;;;;14.13;2.70;;;14.20;99.90;;;;;;7286108;19;20189;-89
2023/10/04 00:12:45;;;;;;;14.77;2.17;;;14.20;99.90;;;;;;7286733;19;20199;-89
2023/10/04 00:15:12;;;;;;;13.27;2.20;;;14.20;99.90;;;;;;7291271;19;20198;-89
2023/10/04 00:17:43;;;;;;;16.07;2.57;;;14.20;99.90;;;;;;7290697;19;20202;-90
2023/10/04 00:20:14;;;;;;;18.23;2.40;;;14.30;99.90;;;;;;7291160;19;20198;-89
2023/10/04 00:22:40;;;;;;;11.53;1.93;;;14.30;99.90;;;;;;7290993;19;20228;-89
2023/10/04 00:25:11;;;;;;;13.83;2.40;;;14.40;99.90;;;;;;7290474;19;20649;-90
2023/10/04 00:27:43;;;;;;;12.83;2.50;;;14.30;99.90;;;;;;7291397;19;20190;-88
2023/10/04 00:30:15;;;;;;;15.43;2.30;;;14.20;99.90;;;;;;7292896;19;20196;-89
2023/10/04 00:32:44;;;;;;;16.57;2.33;;;14.20;99.90;;;;;;7292376;19;20213;-89
2023/10/04 00:35:12;;;;;;;14.67;2.67;;;14.20;99.90;;;;;;7292071;19;20227;-89
2023/10/04 00:37:42;;;;;;;11.90;2.00;;;14.10;99.90;;;;;;7289957;19;20580;-89
2023/10/04 00:40:12;;;;;;;17.63;2.40;;;14.10;99.90;;;;;;7290754;19;20181;-89
2023/10/04 00:42:38;;;;;;;11.93;2.03;;;14.00;99.90;;;;;;7290275;19;20197;-90
2023/10/04 00:45:05;;;;;;;14.43;2.43;;;14.10;99.90;;;;;;7289343;19;20185;-89
2023/10/04 00:47:32;;;;;;;14.23;2.47;;;14.20;99.90;;;;;;7290126;19;20657;-89
2023/10/04 00:50:07;;;;;;;13.13;2.17;;;14.10;99.90;;;;;;7294379;19;20201;-89
2023/10/04 00:52:33;;;;;;;13.60;2.67;;;14.10;99.90;;;;;;7290036;19;20267;-89
2023/10/04 00:55:00;;;;;;;19.30;2.80;;;14.10;99.90;;;;;;7289782;19;20200;-88
2023/10/04 00:57:28;;;;;;;15.50;2.20;;;14.20;99.90;;;;;;7312757;19;20264;-89
2023/10/04 00:59:54;;;;;;;12.93;2.13;;;14.20;99.90;;;;;;7290341;19;20251;-88
2023/10/04 01:02:19;;;;;;;10.97;2.03;;;14.10;99.90;;;;;;7289751;19;20194;-89
2023/10/04 01:04:46;;;;;;;15.47;2.60;;;14.10;99.90;;;;;;7289606;19;20240;-89
2023/10/04 01:07:13;;;;;;;11.33;2.07;;;14.00;99.90;;;;;;7289437;19;20546;-88
2023/10/04 01:09:39;;;;;;;19.10;2.50;;;14.00;99.90;;;;;;7290845;19;20195;-89
2023/10/04 01:12:04;;;;;;;16.87;3.00;;;14.00;99.90;;;;;;7290164;19;20290;-89
2023/10/04 01:14:37;;;;;;;13.43;2.37;;;14.00;99.90;;;;;;7290543;19;20264;-89
2023/10/04 01:17:10;;;;;;;16.00;2.70;;;14.10;99.90;;;;;;7291396;19;20198;-88
2023/10/04 01:19:35;;;;;;;12.43;2.23;;;14.00;99.90;;;;;;7290499;19;20191;-89
2023/10/04 01:22:05;;;;;;;13.37;2.23;;;14.00;99.90;;;;;;7290185;19;20197;-89
2023/10/04 01:24:33;;;;;;;12.50;2.13;;;14.00;99.90;;;;;;7289922;19;20192;-89
2023/10/04 01:27:00;;;;;;;13.23;2.23;;;14.00;99.90;;;;;;7290468;19;20189;-89
2023/10/04 01:29:25;;;;;;;12.70;3.20;;;14.00;99.90;;;;;;7311867;19;20204;-90
2023/10/04 01:31:53;;;;;;;16.17;2.53;;;14.10;99.90;;;;;;7289767;19;20604;-89
2023/10/04 01:34:19;;;;;;;13.47;2.60;;;14.10;99.90;;;;;;7290140;19;20200;-88
2023/10/04 01:36:44;;;;;;;15.30;2.30;;;14.00;99.90;;;;;;7290691;19;20249;-89
2023/10/04 01:39:18;;;;;;;12.97;2.50;;;14.00;99.90;;;;;;7290329;19;20183;-88
2023/10/04 01:41:44;;;;;;;14.93;2.20;;;14.00;99.90;;;;;;7289617;19;20190;-88
2023/10/04 01:44:09;;;;;;;12.67;2.77;;;13.90;99.90;;;;;;7289452;19;20200;-89
2023/10/04 01:46:37;;;;;;;13.03;2.30;;;14.00;99.90;;;;;;7288608;19;20291;-89
2023/10/04 01:49:04;;;;;;;17.67;2.30;;;14.00;99.90;;;;;;7289421;19;20200;-90
2023/10/04 01:51:30;;;;;;;15.20;2.17;;;13.90;99.90;;;;;;7289107;19;20193;-90
2023/10/04 01:53:59;;;;;;;15.53;2.27;;;13.90;99.90;;;;;;7309041;19;20200;-88
2023/10/04 01:56:25;;;;;;;13.53;2.30;;;14.00;99.90;;;;;;7288455;19;20253;-88
2023/10/04 01:58:51;;;;;;;18.60;2.50;;;13.90;99.90;;;;;;7288081;19;20200;-88
2023/10/04 02:01:17;;;;;;;16.90;2.53;;;13.80;99.90;;;;;;7289106;19;20543;-89
2023/10/04 02:03:43;;;;;;;14.20;2.40;;;13.80;99.90;;;;;;7288791;19;20209;-88
2023/10/04 02:06:09;;;;;;;15.97;2.60;;;13.80;99.90;;;;;;7288740;19;20253;-89
2023/10/04 02:08:35;;;;;;;14.43;2.63;;;13.90;99.90;;;;;;7287605;19;20230;-90
2023/10/04 02:11:04;;;;;;;14.57;2.47;;;13.90;99.90;;;;;;7288517;19;20193;-89
2023/10/04 02:13:32;;;;;;;14.97;2.87;;;14.00;99.90;;;;;;7288199;19;20188;-89
2023/10/04 02:15:59;;;;;;;13.37;2.17;;;14.00;99.90;;;;;;7296455;19;20211;-89
2023/10/04 02:18:25;;;;;;;13.43;2.17;;;14.00;99.90;;;;;;7309363;19;20188;-89
2023/10/04 02:20:53;;;;;;;16.10;2.97;;;14.00;99.90;;;;;;7287561;19;20205;-88
2023/10/04 02:23:19;;;;;;;16.33;2.70;;;13.90;99.90;;;;;;7287871;19;20323;-89
2023/10/04 02:25:48;;;;;;;17.47;3.00;;;13.90;99.90;;;;;;7287352;19;20251;-89
2023/10/04 02:28:23;;;;;;;14.63;2.33;;;13.90;99.90;;;;;;7287394;19;20199;-89
2023/10/04 02:30:49;;;;;;;12.63;2.33;;;14.00;99.90;;;;;;7288150;19;20231;-89
2023/10/04 02:33:16;;;;;;;15.93;2.33;;;14.00;99.90;;;;;;7287731;19;20187;-89
2023/10/04 02:35:44;;;;;;;18.40;2.80;;;14.10;99.90;;;;;;7286404;19;20201;-88
2023/10/04 02:38:19;;;;;;;15.77;2.90;;;14.20;99.90;;;;;;7288211;19;20196;-89
2023/10/04 02:40:48;;;;;;;10.47;2.27;;;14.10;99.90;;;;;;7286851;19;20231;-88
2023/10/04 02:43:15;;;;;;;13.77;2.80;;;14.20;99.90;;;;;;7288076;19;20197;-89
2023/10/04 02:45:42;;;;;;;14.90;2.40;;;14.20;99.90;;;;;;7286418;19;20724;-89
2023/10/04 02:48:10;;;;;;;14.37;2.47;;;14.10;99.90;;;;;;7287044;19;20194;-88
2023/10/04 02:50:41;;;;;;;12.80;2.27;;;14.10;99.90;;;;;;7286667;19;20964;-88
2023/10/04 02:53:12;;;;;;;12.80;2.33;;;14.20;99.90;;;;;;7286999;19;20216;-89
2023/10/04 02:55:39;;;;;;;12.37;2.83;;;14.20;99.90;;;;;;7286046;19;20190;-89
2023/10/04 02:58:06;;;;;;;12.97;2.57;;;14.20;99.90;;;;;;7287163;19;20253;-88
2023/10/04 03:00:33;;;;;;;15.73;2.23;;;14.10;99.90;;;;;;7286557;19;20202;-89
2023/10/04 03:02:59;;;;;;;18.27;2.50;;;14.00;99.90;;;;;;7287876;19;20212;-88
2023/10/04 03:05:31;;;;;;;14.30;2.63;;;14.00;99.90;;;;;;7305114;19;20185;-89
2023/10/04 03:08:09;;;;;;;13.20;2.37;;;13.90;99.90;;;;;;7286100;19;20294;-89
2023/10/04 03:10:37;;;;;;;16.37;2.87;;;13.80;99.90;;;;;;7286641;19;20214;-89
2023/10/04 03:13:20;;;;;;;17.13;2.63;;;13.70;99.90;;;;;;7286490;19;20188;-88
2023/10/04 03:15:47;;;;;;;15.43;2.43;;;13.70;99.90;;;;;;7285630;19;20193;-89
2023/10/04 03:18:13;;;;;;;12.60;2.27;;;13.70;99.90;;;;;;7287022;19;20584;-89
2023/10/04 03:20:48;;;;;;;13.07;2.47;;;13.60;99.90;;;;;;7285497;19;20283;-89
2023/10/04 03:23:19;;;;;;;10.13;2.17;;;13.60;99.90;;;;;;7285360;19;20200;-89
2023/10/04 03:25:48;;;;;;;13.43;2.30;;;13.60;99.90;;;;;;7286498;19;20204;-89
2023/10/04 03:28:15;;;;;;;17.20;2.60;;;13.50;99.90;;;;;;7286121;19;20195;-89
2023/10/04 03:30:45;;;;;;;16.00;2.40;;;13.50;99.90;;;;;;7286384;19;20226;-89
2023/10/04 03:33:11;;;;;;;11.80;2.33;;;13.60;99.90;;;;;;7285493;19;20567;-88
2023/10/04 03:35:43;;;;;;;16.50;2.30;;;13.60;99.90;;;;;;7285260;19;20197;-88
2023/10/04 03:38:11;;;;;;;17.93;2.50;;;13.50;99.90;;;;;;7285117;19;20194;-88
2023/10/04 03:40:39;;;;;;;15.23;2.70;;;13.40;99.90;;;;;;7285031;19;20185;-88
2023/10/04 03:43:09;;;;;;;14.30;2.90;;;13.30;99.90;;;;;;7284661;19;20660;-88
2023/10/04 03:45:40;;;;;;;16.00;2.37;;;13.40;99.90;;;;;;7285144;19;20232;-89
2023/10/04 03:48:18;;;;;;;16.27;2.07;;;13.40;99.90;;;;;;7289392;19;20210;-89
2023/10/04 03:50:50;;;;;;;16.87;2.63;;;13.40;99.90;;;;;;7292758;19;20186;-89
2023/10/04 03:53:20;;;;;;;13.33;2.60;;;13.40;99.90;;;;;;7292222;19;20193;-88
2023/10/04 03:55:47;;;;;;;13.00;2.23;;;13.40;99.90;;;;;;7292755;19;20196;-89
2023/10/04 03:58:15;;;;;;;16.20;2.83;;;13.40;99.90;;;;;;7292924;19;20200;-89
2023/10/04 04:00:42;;;;;;;18.90;3.07;;;13.30;99.90;;;;;;7292462;19;20203;-89
2023/10/04 04:03:10;;;;;;;13.97;2.30;;;13.20;99.90;;;;;;7291636;19;20200;-90
2023/10/04 04:05:41;;;;;;;13.37;2.13;;;13.20;99.90;;;;;;7292127;19;20192;-89
2023/10/04 04:08:08;;;;;;;16.33;2.37;;;13.20;99.90;;;;;;7291752;19;20204;-89
2023/10/04 04:10:36;;;;;;;15.23;2.50;;;13.20;99.90;;;;;;7293302;19;20207;-90
2023/10/04 04:13:02;;;;;;;13.87;2.30;;;13.20;99.90;;;;;;7291869;19;20193;-90
2023/10/04 04:15:33;;;;;;;18.70;2.63;;;13.20;99.90;;;;;;7293691;19;20224;-89
2023/10/04 04:17:59;;;;;;;17.10;2.60;;;13.20;99.90;;;;;;7292202;19;20200;-89
2023/10/04 04:20:26;;;;;;;17.10;2.97;;;13.10;99.90;;;;;;7313719;19;22376;-89
2023/10/04 04:22:55;;;;;;;15.33;2.70;;;13.00;99.90;;;;;;7292838;19;20241;-89
2023/10/04 04:25:24;;;;;;;13.90;2.57;;;13.00;99.90;;;;;;7292675;19;20199;-89
2023/10/04 04:27:53;;;;;;;19.00;2.97;;;13.00;99.90;;;;;;7290956;19;20197;-89
2023/10/04 04:30:27;;;;;;;18.70;3.00;;;13.00;99.90;;;;;;7291833;19;20646;-89
2023/10/04 04:32:56;;;;;;;18.77;3.23;;;13.00;99.90;;;;;;7291577;19;20192;-89
2023/10/04 04:37:57;;;;;;;17.83;3.00;;;13.00;99.90;;;;;;7292046;19;20668;-89
2023/10/04 04:40:30;;;;;;;17.83;2.90;;;13.00;99.90;;;;;;7291507;19;20177;-89
2023/10/04 04:43:14;;;;;;;15.07;2.67;;;12.90;99.90;;;;;;7291166;19;20206;-89
2023/10/04 04:45:40;;;;;;;17.53;2.77;;;12.90;99.90;;;;;;7188929;19;2006497;-89
2023/10/04 04:48:06;;;;;;;13.57;2.30;;;12.80;99.90;;;;;;7290669;19;20188;-88
2023/10/04 04:50:35;;;;;;;14.47;2.73;;;12.90;99.90;;;;;;7291049;19;20566;-89
2023/10/04 04:53:10;;;;;;;15.77;2.73;;;12.80;99.90;;;;;;7288672;19;20195;-89
2023/10/04 04:55:36;;;;;;;13.40;2.57;;;12.80;99.90;;;;;;7288464;19;20534;-89
2023/10/04 04:58:05;;;;;;;17.83;2.70;;;12.80;99.90;;;;;;7289704;19;20202;-89
2023/10/04 05:00:32;;;;;;;18.93;2.87;;;12.80;99.90;;;;;;7289567;19;20195;-88
2023/10/04 05:03:00;;;;;;;16.67;2.73;;;12.80;99.90;;;;;;7308412;19;20198;-89
2023/10/04 05:05:26;;;;;;;19.93;3.40;;;12.80;99.90;;;;;;7312567;19;20185;-88
2023/10/04 05:07:52;;;;;;;17.10;3.17;;;12.90;99.90;;;;;;7290131;19;20179;-89
2023/10/04 05:10:22;;;;;;;14.37;2.73;;;12.80;99.90;;;;;;7287267;19;20605;-89
2023/10/04 05:12:48;;;;;;;14.90;2.83;;;12.80;99.90;;;;;;7289278;19;20194;-88
2023/10/04 05:18:16;;;;;;;17.10;2.43;;;12.80;99.90;;;;;;7187803;19;2005046;-88
2023/10/04 05:20:53;;;;;;;20.37;2.83;;;12.80;99.90;;;;;;7290899;19;20205;-89
2023/10/04 05:23:29;;;;;;;13.67;2.83;;;12.80;99.90;;;;;;7289325;19;20234;-89
2023/10/04 05:25:54;;;;;;;20.93;2.97;;;12.70;99.90;;;;;;7289157;19;20191;-90
2023/10/04 05:28:24;;;;;;;14.93;2.63;;;12.70;99.90;;;;;;7288326;19;20192;-89
2023/10/04 05:30:51;;;;;;;16.47;2.53;;;12.70;99.90;;;;;;7288282;19;20272;-89
2023/10/04 05:33:21;;;;;;;14.97;2.60;;;12.60;99.90;;;;;;7289245;19;20196;-91
2023/10/04 05:35:51;;;;;;;26.10;4.03;;;12.60;99.90;;;;;;7290441;19;20204;-90
2023/10/04 05:38:17;;;;;;;19.33;3.10;;;12.60;99.90;;;;;;7289269;19;20199;-89
2023/10/04 05:40:44;;;;;;;18.60;3.37;;;12.60;99.90;;;;;;7288025;19;20185;-89
2023/10/04 05:43:14;;;;;;;17.17;3.00;;;12.70;99.90;;;;;;7289113;19;20191;-90
2023/10/04 05:45:42;;;;;;;15.93;2.80;;;12.70;99.90;;;;;;7288853;19;20192;-90
2023/10/04 05:48:09;;;;;;;17.87;2.60;;;12.60;99.90;;;;;;7292540;19;20553;-90
2023/10/04 05:50:35;;;;;;;17.87;2.93;;;12.60;99.90;;;;;;7288115;19;20184;-91
2023/10/04 05:53:05;;;;;;;22.67;3.43;;;12.60;99.90;;;;;;7289498;19;20192;-91
2023/10/04 05:55:32;;;;;;;13.77;2.63;;;12.60;99.90;;;;;;7288427;19;20252;-90
2023/10/04 05:57:58;;;;;;;17.13;2.97;;;12.60;99.90;;;;;;7309491;19;20188;-90
2023/10/04 06:02:54;;;;;;;15.43;2.53;;;12.60;99.90;;;;;;7287602;19;21024;-91
2023/10/04 06:05:24;;;;;;;19.30;2.67;;;12.70;99.90;;;;;;7287941;19;20186;-89
2023/10/04 06:07:56;;;;;;;17.67;3.00;;;12.70;99.90;;;;;;7288367;19;20199;-90
2023/10/04 06:10:24;;;;;;;15.77;2.40;;;12.80;99.90;;;;;;7286299;19;20192;-90
2023/10/04 06:12:53;;;;;;;17.90;2.97;;;12.70;99.90;;;;;;7288177;19;20245;-90
2023/10/04 06:15:20;;;;;;;15.60;2.90;;;12.80;99.90;;;;;;7285536;19;20174;-90
2023/10/04 06:17:50;;;;;;;19.37;2.80;;;12.80;99.90;;;;;;7287451;19;20194;-90
2023/10/04 06:23:05;;;;;;;23.43;3.07;;;13.00;99.90;;;;;;7287806;19;20195;-91
2023/10/04 06:25:42;;;;;;;20.17;3.10;;;13.10;99.90;;;;;;7265479;19;20190;-90
2023/10/04 06:28:11;;;;;;;17.70;2.80;;;13.20;99.90;;;;;;7287769;19;20209;-91
2023/10/04 06:30:37;;;;;;;17.60;3.00;;;13.20;99.90;;;;;;7288372;19;20204;-90
2023/10/04 06:33:05;;;;;;;17.43;2.90;;;13.30;99.90;;;;;;7287849;19;20209;-90
2023/10/04 06:35:32;;;;;;;19.33;2.60;;;13.60;99.90;;;;;;7286563;19;20223;-91
2023/10/04 06:37:59;;;;;;;13.63;2.80;;;13.90;99.90;;;;;;7303255;19;20704;-90
2023/10/04 06:40:26;;;;;;;13.13;2.90;;;14.20;99.90;;;;;;7286997;19;20193;-90
2023/10/04 06:42:55;;;;;;;18.83;2.87;;;14.20;99.90;;;;;;7287077;19;20193;-90
2023/10/04 06:45:24;;;;;;;14.90;2.80;;;14.30;99.90;;;;;;7287284;19;20555;-90
2023/10/04 06:47:53;;;;;;;20.63;2.97;;;14.40;99.90;;;;;;7286572;19;20197;-90
2023/10/04 06:50:21;;;;;;;17.13;2.80;;;14.70;99.90;;;;;;7284660;19;20206;-90
2023/10/04 06:52:48;;;;;;;19.40;3.00;;;15.30;99.90;;;;;;7287497;19;20185;-90
2023/10/04 06:55:16;;;;;;;15.43;2.97;;;15.90;99.90;;;;;;7286907;19;20650;-90
2023/10/04 06:57:44;;;;;;;13.63;2.93;;;16.50;99.90;;;;;;7286108;19;20264;-90
2023/10/04 07:00:18;;;;;;;17.30;2.50;;;17.20;99.90;;;;;;7286386;19;20260;-90
2023/10/04 07:03:11;;;;;;;16.73;2.87;;;17.70;99.90;;;;;;7286895;19;20208;-89
2023/10/04 07:05:41;;;;;;;15.60;2.70;;;18.20;99.90;;;;;;7184033;19;2004419;-90
2023/10/04 07:08:09;;;;;;;18.40;2.70;;;18.60;99.90;;;;;;7285106;19;20181;-90
2023/10/04 07:10:35;;;;;;;13.83;2.50;;;18.90;99.90;;;;;;7287736;19;20192;-90
2023/10/04 07:13:02;;;;;;;20.43;3.43;;;19.10;99.90;;;;;;7286888;19;20181;-90
2023/10/04 07:15:30;;;;;;;16.50;2.63;;;18.70;99.90;;;;;;7303152;19;20222;-88
2023/10/04 07:17:57;;;;;;;15.17;2.67;;;19.00;99.90;;;;;;7308484;19;20657;-90
2023/10/04 07:20:24;;;;;;;13.77;2.60;;;19.40;99.90;;;;;;7286481;19;20268;-91
2023/10/04 07:22:58;;;;;;;17.87;2.90;;;19.70;99.90;;;;;;7291802;19;20276;-91
2023/10/04 07:25:28;;;;;;;19.17;3.37;;;19.50;99.90;;;;;;7293223;19;20199;-90
2023/10/04 07:27:56;;;;;;;15.37;2.70;;;19.60;99.90;;;;;;7292482;19;20188;-90
2023/10/04 07:30:25;;;;;;;15.30;3.00;;;20.20;99.90;;;;;;7293844;19;20227;-90
2023/10/04 07:32:52;;;;;;;15.27;3.03;;;20.90;99.90;;;;;;7294249;19;20573;-91
2023/10/04 07:35:21;;;;;;;18.07;3.13;;;21.20;99.90;;;;;;7292922;19;20255;-90
2023/10/04 07:37:48;;;;;;;16.80;3.43;;;21.20;99.90;;;;;;7290873;19;20203;-90
2023/10/04 07:40:16;;;;;;;10.83;2.50;;;21.60;99.90;;;;;;7293072;19;20191;-90
2023/10/04 07:42:48;;;;;;;17.83;2.70;;;21.90;99.90;;;;;;7291431;19;20566;-90
2023/10/04 07:45:14;;;;;;;15.33;3.13;;;22.20;99.90;;;;;;7292950;19;20199;-90
2023/10/04 07:47:42;;;;;;;16.50;3.40;;;22.90;99.90;;;;;;7292876;19;20193;-90
2023/10/04 07:50:11;;;;;;;16.80;3.60;;;22.90;99.90;;;;;;7292096;19;20184;-90
2023/10/04 07:52:37;;;;;;;17.30;3.30;;;23.10;99.90;;;;;;7292856;19;20199;-90
2023/10/04 07:55:05;;;;;;;15.93;3.33;;;23.30;99.90;;;;;;7292550;19;20220;-91
2023/10/04 07:57:37;;;;;;;15.77;3.37;;;23.30;99.90;;;;;;7291881;19;20193;-90
2023/10/04 08:00:11;;;;;;;16.90;2.70;;;23.10;99.90;;;;;;7298206;19;20200;-89
2023/10/04 08:02:38;;;;;;;18.50;3.60;;;23.00;99.90;;;;;;7305414;19;20199;-89
2023/10/04 08:05:06;;;;;;;16.90;3.07;;;22.70;99.90;;;;;;7295673;19;20631;-90
2023/10/04 08:07:33;;;;;;;19.37;3.30;;;22.00;99.90;;;;;;7292298;19;20553;-89
2023/10/04 08:09:59;;;;;;;13.67;3.00;;;21.40;99.90;;;;;;7303122;19;20194;-90
2023/10/04 08:12:26;;;;;;;17.80;3.60;;;20.70;99.90;;;;;;7312543;19;20209;-90
2023/10/04 08:14:56;;;;;;;17.83;3.10;;;20.00;99.90;;;;;;7292286;19;20192;-91
2023/10/04 08:17:23;;;;;;;18.23;3.23;;;19.80;99.90;;;;;;7291406;19;20194;-90
2023/10/04 08:19:49;;;;;;;15.17;3.00;;;19.60;99.90;;;;;;7293163;19;20180;-90
2023/10/04 08:22:15;;;;;;;17.47;3.40;;;19.50;99.90;;;;;;7293794;19;20188;-89
2023/10/04 08:24:44;;;;;;;19.70;3.35;;;19.40;99.90;;;;;;7292142;19;20190;-90
2023/10/04 08:27:09;;;;;;;19.63;4.27;;;19.40;99.90;;;;;;7293269;19;20185;-90
2023/10/04 08:29:37;;;;;;;15.87;3.83;;;19.30;99.90;;;;;;7293115;19;20200;-90
2023/10/04 08:32:03;;;;;;;20.97;3.53;;;19.20;99.90;;;;;;7294411;19;20618;-90
2023/10/04 08:34:29;;;;;;;14.27;2.97;;;19.20;99.90;;;;;;7305743;19;20193;-89
2023/10/04 08:36:56;;;;;;;15.87;3.27;;;19.30;99.90;;;;;;7310694;19;20549;-90
2023/10/04 08:39:22;;;;;;;18.30;3.67;;;19.40;99.90;;;;;;7294868;19;20217;-90
2023/10/04 08:41:48;;;;;;;21.03;3.60;;;19.60;99.90;;;;;;7291550;19;20209;-90
2023/10/04 08:44:15;;;;;;;16.53;3.60;;;19.60;99.90;;;;;;7291427;19;20195;-89
2023/10/04 08:46:46;;;;;;;20.63;3.40;;;19.70;99.90;;;;;;7290846;19;20542;-90
2023/10/04 08:49:19;;;;;;;15.93;3.20;;;19.80;99.90;;;;;;7291032;19;20200;-90
2023/10/04 08:51:54;;;;;;;17.20;3.30;;;19.80;99.90;;;;;;7293911;19;20185;-90
2023/10/04 08:54:24;;;;;;;18.00;4.37;;;19.90;99.90;;;;;;7292258;19;20190;-90
2023/10/04 08:57:13;;;;;;;18.70;3.53;;;20.20;99.90;;;;;;7292418;19;21351;-90
2023/10/04 08:59:41;;;;;;;17.50;3.30;;;20.20;99.90;;;;;;7190406;19;2004455;-90
2023/10/04 09:02:12;;;;;;;16.13;3.53;;;20.30;99.90;;;;;;7293948;19;20321;-90
2023/10/04 09:04:39;;;;;;;16.13;3.53;;;20.30;99.90;;;;;;7291955;19;20578;-90
2023/10/04 09:07:08;;;;;;;23.60;4.17;;;20.40;99.90;;;;;;7293351;19;20195;-90
2023/10/04 09:09:38;;;;;;;17.13;3.73;;;20.40;99.90;;;;;;7291348;19;20222;-90
2023/10/04 09:12:06;;;;;;;16.27;3.67;;;20.50;99.90;;;;;;7293671;19;20221;-90
2023/10/04 09:14:33;;;;;;;15.00;3.47;;;20.40;99.90;;;;;;7290007;19;20181;-90
2023/10/04 09:17:06;;;;;;;17.50;4.17;;;20.50;99.90;;;;;;7308117;19;20187;-89
2023/10/04 09:19:33;;;;;;;13.83;3.17;;;20.60;99.90;;;;;;7292821;19;20186;-89
2023/10/04 09:22:06;;;;;;;14.97;3.47;;;20.80;99.90;;;;;;7316913;19;20261;-89
2023/10/04 09:24:35;;;;;;;16.27;3.67;;;20.70;99.90;;;;;;7292078;19;20187;-88
2023/10/04 09:27:01;;;;;;;17.03;3.70;;;20.80;99.90;;;;;;7291582;19;20190;-89
2023/10/04 09:29:33;;;;;;;16.73;4.10;;;20.80;99.90;;;;;;7314635;19;20183;-90
2023/10/04 09:32:00;;;;;;;16.53;3.43;;;21.10;99.90;;;;;;7285672;19;20665;-90
2023/10/04 09:34:28;;;;;;;20.00;4.10;;;21.00;99.90;;;;;;7311491;19;20254;-90
2023/10/04 09:36:55;;;;;;;19.50;3.97;;;21.10;99.90;;;;;;7291683;19;20206;-89
2023/10/04 09:39:27;;;;;;;17.00;3.57;;;21.10;99.90;;;;;;7292232;19;20202;-90
2023/10/04 09:41:55;;;;;;;14.93;3.50;;;21.30;99.90;;;;;;7288726;19;20254;-90
2023/10/04 09:44:26;;;;;;;21.27;4.23;;;21.40;99.90;;;;;;7284541;19;20880;-90
2023/10/04 09:46:54;;;;;;;16.67;4.07;;;21.90;99.90;;;;;;7286231;19;20185;-90
2023/10/04 09:49:21;;;;;;;15.47;3.57;;;22.30;99.90;;;;;;7289434;19;20249;-89
2023/10/04 09:51:49;;;;;;;20.20;3.97;;;22.70;99.90;;;;;;7288714;19;20179;-90
2023/10/04 09:54:18;;;;;;;20.03;4.43;;;23.30;99.90;;;;;;7287919;19;20209;-89
2023/10/04 09:56:49;;;;;;;13.87;4.00;;;23.30;99.90;;;;;;7286875;19;20203;-90
2023/10/04 09:59:21;;;;;;;16.37;3.83;;;23.10;99.90;;;;;;7288477;19;20261;-90
2023/10/04 10:01:55;;;;;;;14.10;3.60;;;23.10;99.90;;;;;;7288776;19;20213;-90
2023/10/04 10:04:27;;;;;;;17.17;3.87;;;23.40;99.90;;;;;;7290564;19;20199;-90
2023/10/04 10:07:11;;;;;;;17.33;4.03;;;23.10;99.90;;;;;;7288002;19;20198;-90
2023/10/04 10:09:49;;;;;;;16.10;4.63;;;23.20;99.90;;;;;;7186047;19;2004601;-90
2023/10/04 10:12:16;;;;;;;13.57;4.17;;;22.80;99.90;;;;;;7288306;19;20669;-89
2023/10/04 10:14:45;;;;;;;21.20;5.07;;;22.50;99.90;;;;;;7287229;19;20193;-90
2023/10/04 10:17:12;;;;;;;18.83;4.93;;;22.30;99.90;;;;;;7287963;19;20199;-90
2023/10/04 10:19:37;;;;;;;15.47;4.33;;;22.00;99.90;;;;;;7289535;19;20211;-90
2023/10/04 10:22:16;;;;;;;17.67;5.13;;;21.90;99.90;;;;;;7289669;19;20667;-89
2023/10/04 10:25:14;;;;;;;18.70;4.77;;;21.80;99.90;;;;;;7289248;19;20230;-90
2023/10/04 10:27:41;;;;;;;19.10;4.10;;;21.80;99.90;;;;;;7185402;19;2004451;-89
2023/10/04 10:30:12;;;;;;;21.40;4.70;;;21.50;99.90;;;;;;7288015;19;20203;-89
2023/10/04 10:32:54;;;;;;;19.10;3.87;;;21.30;99.90;;;;;;7287453;19;20189;-89
2023/10/04 10:35:57;;;;;;;18.63;4.90;;;20.80;99.90;;;;;;7287941;19;20188;-87
2023/10/04 10:38:41;;;;;;;21.00;4.93;;;20.40;99.90;;;;;;7185290;19;2004305;-89
2023/10/04 10:41:09;;;;;;;14.23;3.30;;;20.20;99.90;;;;;;7184283;19;2004726;-90
2023/10/04 10:43:37;;;;;;;13.77;3.67;;;20.10;99.90;;;;;;7286003;19;20191;-89
2023/10/04 10:46:34;;;;;;;15.47;3.43;;;20.00;99.90;;;;;;7285315;19;20186;-90
2023/10/04 10:48:59;;;;;;;14.00;3.13;;;20.00;99.90;;;;;;7277567;19;20267;-90
2023/10/04 10:51:48;;;;;;;13.13;2.90;;;20.00;99.90;;;;;;7303599;19;20647;-89
2023/10/04 10:54:14;;;;;;;12.37;3.20;;;20.20;99.90;;;;;;7182965;19;2004533;-89
2023/10/04 10:56:39;;;;;;;15.37;2.60;;;20.30;99.90;;;;;;7285448;19;20208;-89
2023/10/04 10:59:05;;;;;;;17.17;3.13;;;20.50;99.90;;;;;;7286427;19;20754;-89
2023/10/04 11:01:31;;;;;;;14.43;3.50;;;20.50;99.90;;;;;;7284248;19;20204;-89
2023/10/04 11:03:58;;;;;;;13.53;2.97;;;20.80;99.90;;;;;;7307678;19;20253;-90
2023/10/04 11:06:25;;;;;;;11.77;2.87;;;20.80;99.90;;;;;;7285661;19;20263;-89
2023/10/04 11:08:55;;;;;;;14.17;3.03;;;20.80;99.90;;;;;;7234352;19;20190;-89
2023/10/04 11:11:22;;;;;;;14.43;3.53;;;20.80;99.90;;;;;;7285474;19;20904;-89
2023/10/04 11:13:51;;;;;;;12.40;3.10;;;20.70;99.90;;;;;;7285780;19;20190;-89
2023/10/04 11:16:19;;;;;;;13.37;2.83;;;20.80;99.90;;;;;;7285388;19;20199;-89
2023/10/04 11:18:45;;;;;;;12.33;3.40;;;21.10;99.90;;;;;;7285437;19;20550;-89
2023/10/04 11:21:11;;;;;;;15.83;3.50;;;21.50;99.90;;;;;;7282572;19;20194;-90
2023/10/04 11:23:37;;;;;;;16.10;3.50;;;21.60;99.90;;;;;;7285744;19;20183;-90
2023/10/04 11:26:08;;;;;;;17.77;3.57;;;22.00;99.90;;;;;;7284069;19;20195;-89
2023/10/04 11:28:35;;;;;;;16.03;4.10;;;22.20;99.90;;;;;;7286117;19;20197;-90
2023/10/04 11:31:01;;;;;;;19.67;3.70;;;22.60;99.90;;;;;;7283888;19;20191;-90
2023/10/04 11:33:27;;;;;;;18.33;4.37;;;22.70;99.90;;;;;;7307828;19;20194;-90
2023/10/04 11:35:53;;;;;;;16.70;3.60;;;23.00;99.90;;;;;;7284461;19;20217;-89
2023/10/04 11:38:19;;;;;;;14.93;3.57;;;23.20;99.90;;;;;;7285727;19;20205;-90
2023/10/04 11:40:50;;;;;;;14.40;3.97;;;23.20;99.90;;;;;;7285688;19;20189;-89
2023/10/04 11:43:17;;;;;;;15.20;3.60;;;22.80;99.90;;;;;;7285491;19;20212;-89
2023/10/04 11:45:43;;;;;;;19.80;3.87;;;22.80;99.90;;;;;;7282829;19;20185;-89
2023/10/04 11:48:10;;;;;;;14.70;3.70;;;22.80;99.90;;;;;;7284723;19;20193;-89
2023/10/04 11:50:53;;;;;;;16.47;3.50;;;23.10;99.90;;;;;;7283638;19;20185;-90
2023/10/04 11:53:32;;;;;;;14.80;3.20;;;23.40;99.90;;;;;;7284623;19;20206;-90
2023/10/04 11:56:00;;;;;;;12.93;3.40;;;23.50;99.90;;;;;;7284676;19;20208;-89
2023/10/04 11:58:30;;;;;;;12.80;3.40;;;23.90;99.90;;;;;;7285512;19;20182;-89
2023/10/04 12:01:06;;;;;;;14.73;3.30;;;24.10;99.90;;;;;;7285409;19;20301;-89
2023/10/04 12:03:33;;;;;;;13.67;2.93;;;24.60;99.90;;;;;;7261648;19;20193;-89
2023/10/04 12:05:59;;;;;;;12.10;3.00;;;24.50;99.90;;;;;;7305921;19;20189;-89
2023/10/04 12:08:26;;;;;;;14.37;3.20;;;24.50;99.90;;;;;;7286220;19;20181;-89
2023/10/04 12:10:51;;;;;;;13.83;3.37;;;24.30;99.90;;;;;;7314287;19;20212;-88
2023/10/04 12:13:18;;;;;;;14.10;3.37;;;24.40;99.90;;;;;;7292353;19;20189;-88
2023/10/04 12:15:45;;;;;;;14.37;3.40;;;24.30;99.90;;;;;;7292130;19;20193;-89
2023/10/04 12:18:13;;;;;;;15.60;3.30;;;24.30;99.90;;;;;;7290615;19;20193;-88
2023/10/04 12:20:39;;;;;;;16.17;2.90;;;24.10;99.90;;;;;;7290370;19;20196;-88
2023/10/04 12:23:06;;;;;;;14.60;2.80;;;23.70;99.90;;;;;;7290945;19;20634;-88
2023/10/04 12:25:31;;;;;;;14.37;3.10;;;23.60;99.90;;;;;;7290288;19;20204;-88
2023/10/04 12:27:57;;;;;;;13.50;2.83;;;23.30;99.90;;;;;;7311809;19;20192;-88
2023/10/04 12:30:27;;;;;;;16.43;3.57;;;22.50;99.90;;;;;;7291286;19;20189;-88
2023/10/04 12:32:53;;;;;;;13.87;3.10;;;22.60;99.90;;;;;;7291387;19;20669;-89
2023/10/04 12:35:21;;;;;;;16.90;3.63;;;22.60;99.90;;;;;;7291409;19;20193;-89
2023/10/04 12:37:47;;;;;;;10.67;2.70;;;22.30;99.90;;;;;;7291808;19;20192;-89
2023/10/04 12:40:23;;;;;;;11.77;2.87;;;22.20;99.90;;;;;;7291158;19;20741;-89
2023/10/04 12:42:51;;;;;;;15.67;2.83;;;22.60;99.90;;;;;;7290233;19;20185;-89
2023/10/04 12:45:17;;;;;;;12.63;3.17;;;22.90;99.90;;;;;;7290523;19;20225;-89
2023/10/04 12:47:44;;;;;;;13.00;2.93;;;23.00;99.90;;;;;;7293268;19;20180;-89
2023/10/04 12:50:14;;;;;;;10.20;2.50;;;23.10;99.90;;;;;;7290351;19;20189;-89
2023/10/04 12:52:41;;;;;;;15.53;2.87;;;23.20;99.90;;;;;;7291681;19;20196;-90
2023/10/04 12:55:08;;;;;;;14.13;2.80;;;23.30;99.90;;;;;;7292468;19;20222;-90